This is the latest recevied weather packets stored in our database for station/object DL8GAK-13. If no packets are shown the sender has not sent any weather packets the latest 10 day(s).
| Time | Temp. | Humidity | Pressure | Rain* | Wind** | Luminosity | Snow |
|---|---|---|---|---|---|---|---|
| 1778080186 | 16.67° C | 62% | 1014.9 hPa | - | - | - | - |
| 1778079586 | 17.78° C | 59% | 1014.3 hPa | - | - | - | - |
| 1778078984 | 19.44° C | 56% | 1014.2 hPa | - | - | - | - |
| 1778078383 | 21.11° C | 56% | 1013.4 hPa | - | - | - | - |
| 1778077782 | 21.11° C | 55% | 1013.5 hPa | - | - | - | - |
| 1778077181 | 21.67° C | 57% | 1013.5 hPa | - | - | - | - |
| 1778076580 | 20.56° C | 61% | 1013.5 hPa | - | - | - | - |
| 1778075979 | 18.89° C | 65% | 1013.5 hPa | - | - | - | - |
| 1778075378 | 17.78° C | 68% | 1013.5 hPa | - | - | - | - |
| 1778074777 | 17.22° C | 63% | 1013.5 hPa | - | - | - | - |
| 1778074176 | 17.22° C | 60% | 1014.3 hPa | - | - | - | - |
| 1778073575 | 17.78° C | 58% | 1014.1 hPa | - | - | - | - |
| 1778072974 | 17.78° C | 58% | 1013.9 hPa | - | - | - | - |
| 1778072373 | 17.78° C | 58% | 1013.8 hPa | - | - | - | - |
| 1778071772 | 18.33° C | 57% | 1013.7 hPa | - | - | - | - |
| 1778071171 | 18.33° C | 57% | 1013.6 hPa | - | - | - | - |
| 1778070570 | 18.33° C | 58% | 1013.6 hPa | - | - | - | - |
| 1778069969 | 18.33° C | 58% | 1013.4 hPa | - | - | - | - |
| 1778069368 | 18.33° C | 59% | 1013.4 hPa | - | - | - | - |
| 1778068767 | 18.33° C | 59% | 1013.3 hPa | - | - | - | - |
| 1778068166 | 18.33° C | 59% | 1013.5 hPa | - | - | - | - |
| 1778067564 | 18.33° C | 59% | 1013.5 hPa | - | - | - | - |
| 1778066963 | 18.33° C | 60% | 1013.5 hPa | - | - | - | - |
| 1778066363 | 18.33° C | 59% | 1013.6 hPa | - | - | - | - |
| 1778065761 | 18.33° C | 60% | 1013.7 hPa | - | - | - | - |
* Rain since midnight (hover to see other rain measurements)
** Current wind speed in m/s (hover to see current wind gust speed)